LFOT/TUF METAR and TAF weather

Enter ICAO airport designator
Station Type Date Time Source
LFOT METAR 2018/12/10 13:30 UTC NOAA

LFOT 101330Z AUTO 29007KT 260V320 9999 BKN024 BKN029 OVC110 10/06 Q1029 NOSIG


Station Type Date Time Source
LFOT Decoded METAR 2018/12/10 13:30 UTC NOAA

Tours, France (LFOT) 47-27N 000-43E 112M
Dec 10, 2018 - 08:30 AM EST / 2018.12.10 1330 UTC
Wind: from the WNW (290 degrees) at 8 MPH (7 KT) (direction variable):0
Visibility: greater than 7 mile(s):0
Sky conditions: overcast
Temperature: 50 F (10 C)
Dew Point: 42 F (6 C)
Relative Humidity: 76%
Pressure (altimeter): 30.39 in. Hg (1029 hPa)
ob: LFOT 101330Z AUTO 29007KT 260V320 9999 BKN024 BKN029 OVC110 10/06 Q1029 NOSIG
cycle: 13

Station Type Date Time Source
LFOT TAF 2018/12/10 12:21 UTC NOAA

TAF LFOT 101100Z 1012/1112 28007KT 9999 BKN030
TEMPO 1020/1112 2500 BR BKN004 PROB30
TEMPO 1100/1111 0600 FG VV///


Example: see airport list